sensor_id;sensor_type;location;lat;lon;timestamp;temperature;humidity
61912;DHT22;49973;52.084;5.412;2023-12-14T00:01:31;6.50;99.90
61912;DHT22;49973;52.084;5.412;2023-12-14T00:04:01;6.50;99.90
61912;DHT22;49973;52.084;5.412;2023-12-14T00:06:31;6.40;99.90
61912;DHT22;49973;52.084;5.412;2023-12-14T00:09:00;6.40;99.90
61912;DHT22;49973;52.084;5.412;2023-12-14T00:11:28;6.40;99.90
61912;DHT22;49973;52.084;5.412;2023-12-14T00:13:57;6.40;99.90
61912;DHT22;49973;52.084;5.412;2023-12-14T00:16:26;6.40;99.90
61912;DHT22;49973;52.084;5.412;2023-12-14T00:18:54;6.40;99.90
61912;DHT22;49973;52.084;5.412;2023-12-14T00:21:25;6.40;99.90
61912;DHT22;49973;52.084;5.412;2023-12-14T00:23:53;6.30;99.90
61912;DHT22;49973;52.084;5.412;2023-12-14T00:26:22;6.30;99.90
61912;DHT22;49973;52.084;5.412;2023-12-14T00:28:50;6.30;99.90
61912;DHT22;49973;52.084;5.412;2023-12-14T00:31:28;6.30;99.90
61912;DHT22;49973;52.084;5.412;2023-12-14T00:33:56;6.30;99.90
61912;DHT22;49973;52.084;5.412;2023-12-14T00:36:26;6.30;99.90
61912;DHT22;49973;52.084;5.412;2023-12-14T00:38:55;6.30;99.90
61912;DHT22;49973;52.084;5.412;2023-12-14T00:41:24;6.30;99.90
61912;DHT22;49973;52.084;5.412;2023-12-14T00:43:53;6.40;99.90
61912;DHT22;49973;52.084;5.412;2023-12-14T00:46:21;6.30;99.90
61912;DHT22;49973;52.084;5.412;2023-12-14T00:48:50;6.30;99.90
61912;DHT22;49973;52.084;5.412;2023-12-14T00:51:19;6.30;99.90
61912;DHT22;49973;52.084;5.412;2023-12-14T00:53:48;6.30;99.90
61912;DHT22;49973;52.084;5.412;2023-12-14T00:56:17;6.30;99.90
61912;DHT22;49973;52.084;5.412;2023-12-14T00:58:48;6.30;99.90
61912;DHT22;49973;52.084;5.412;2023-12-14T01:01:17;6.30;99.90
61912;DHT22;49973;52.084;5.412;2023-12-14T01:03:45;6.20;99.90
61912;DHT22;49973;52.084;5.412;2023-12-14T01:06:14;6.30;99.90
61912;DHT22;49973;52.084;5.412;2023-12-14T01:08:42;6.30;99.90
61912;DHT22;49973;52.084;5.412;2023-12-14T01:11:13;6.50;99.90
61912;DHT22;49973;52.084;5.412;2023-12-14T01:13:41;6.30;99.90
61912;DHT22;49973;52.084;5.412;2023-12-14T01:16:10;6.30;99.90
61912;DHT22;49973;52.084;5.412;2023-12-14T01:18:38;6.30;99.90
61912;DHT22;49973;52.084;5.412;2023-12-14T01:21:07;6.30;99.90
61912;DHT22;49973;52.084;5.412;2023-12-14T01:23:35;6.40;99.90
61912;DHT22;49973;52.084;5.412;2023-12-14T01:26:04;6.20;99.90
61912;DHT22;49973;52.084;5.412;2023-12-14T01:28:34;6.20;99.90
61912;DHT22;49973;52.084;5.412;2023-12-14T01:31:03;6.20;99.90
61912;DHT22;49973;52.084;5.412;2023-12-14T01:33:32;6.30;99.90
61912;DHT22;49973;52.084;5.412;2023-12-14T01:36:00;6.30;99.90
61912;DHT22;49973;52.084;5.412;2023-12-14T01:38:29;6.30;99.90
61912;DHT22;49973;52.084;5.412;2023-12-14T01:40:58;6.30;99.90
61912;DHT22;49973;52.084;5.412;2023-12-14T01:43:26;6.30;99.90
61912;DHT22;49973;52.084;5.412;2023-12-14T01:45:56;6.30;99.90
61912;DHT22;49973;52.084;5.412;2023-12-14T01:48:25;6.20;99.90
61912;DHT22;49973;52.084;5.412;2023-12-14T01:50:54;6.30;99.90
61912;DHT22;49973;52.084;5.412;2023-12-14T01:53:24;6.30;99.90
61912;DHT22;49973;52.084;5.412;2023-12-14T01:55:52;6.30;99.90
61912;DHT22;49973;52.084;5.412;2023-12-14T01:58:21;6.40;99.90
61912;DHT22;49973;52.084;5.412;2023-12-14T02:00:55;6.30;99.90
61912;DHT22;49973;52.084;5.412;2023-12-14T02:03:27;6.30;99.90
61912;DHT22;49973;52.084;5.412;2023-12-14T02:05:55;6.30;99.90
61912;DHT22;49973;52.084;5.412;2023-12-14T02:08:25;6.30;99.90
61912;DHT22;49973;52.084;5.412;2023-12-14T02:10:54;6.30;99.90
61912;DHT22;49973;52.084;5.412;2023-12-14T02:13:22;6.30;99.90
61912;DHT22;49973;52.084;5.412;2023-12-14T02:15:51;6.20;99.90
61912;DHT22;49973;52.084;5.412;2023-12-14T02:18:20;6.40;99.90
61912;DHT22;49973;52.084;5.412;2023-12-14T02:20:50;6.20;99.90
61912;DHT22;49973;52.084;5.412;2023-12-14T02:23:20;6.20;99.90
61912;DHT22;49973;52.084;5.412;2023-12-14T02:25:49;6.20;99.90
61912;DHT22;49973;52.084;5.412;2023-12-14T02:28:17;6.20;99.90
61912;DHT22;49973;52.084;5.412;2023-12-14T02:30:46;6.20;99.90
61912;DHT22;49973;52.084;5.412;2023-12-14T02:33:14;6.20;99.90
61912;DHT22;49973;52.084;5.412;2023-12-14T02:35:43;6.20;99.90
61912;DHT22;49973;52.084;5.412;2023-12-14T02:38:12;6.20;99.90
61912;DHT22;49973;52.084;5.412;2023-12-14T02:40:42;6.20;99.90
61912;DHT22;49973;52.084;5.412;2023-12-14T02:43:10;6.20;99.90
61912;DHT22;49973;52.084;5.412;2023-12-14T02:45:39;6.20;99.90
61912;DHT22;49973;52.084;5.412;2023-12-14T02:48:07;6.20;99.90
61912;DHT22;49973;52.084;5.412;2023-12-14T02:50:36;6.20;99.90
61912;DHT22;49973;52.084;5.412;2023-12-14T02:53:04;6.20;99.90
61912;DHT22;49973;52.084;5.412;2023-12-14T02:55:33;6.30;99.90
61912;DHT22;49973;52.084;5.412;2023-12-14T02:58:03;6.20;99.90
61912;DHT22;49973;52.084;5.412;2023-12-14T03:00:32;6.20;99.90
61912;DHT22;49973;52.084;5.412;2023-12-14T03:03:00;6.20;99.90
61912;DHT22;49973;52.084;5.412;2023-12-14T03:05:29;6.20;99.90
61912;DHT22;49973;52.084;5.412;2023-12-14T03:07:58;6.20;99.90
61912;DHT22;49973;52.084;5.412;2023-12-14T03:10:26;6.20;99.90
61912;DHT22;49973;52.084;5.412;2023-12-14T03:12:55;6.30;99.90
61912;DHT22;49973;52.084;5.412;2023-12-14T03:15:25;6.20;99.90
61912;DHT22;49973;52.084;5.412;2023-12-14T03:17:53;6.20;99.90
61912;DHT22;49973;52.084;5.412;2023-12-14T03:20:22;6.30;99.90
61912;DHT22;49973;52.084;5.412;2023-12-14T03:22:51;6.30;99.90
61912;DHT22;49973;52.084;5.412;2023-12-14T03:25:19;6.30;99.90
61912;DHT22;49973;52.084;5.412;2023-12-14T03:27:49;6.30;99.90
61912;DHT22;49973;52.084;5.412;2023-12-14T03:30:18;6.30;99.90
61912;DHT22;49973;52.084;5.412;2023-12-14T03:32:48;6.30;99.90
61912;DHT22;49973;52.084;5.412;2023-12-14T03:35:16;6.30;99.90
61912;DHT22;49973;52.084;5.412;2023-12-14T03:37:45;6.30;99.90
61912;DHT22;49973;52.084;5.412;2023-12-14T03:40:14;6.30;99.90
61912;DHT22;49973;52.084;5.412;2023-12-14T03:42:42;6.20;99.90
61912;DHT22;49973;52.084;5.412;2023-12-14T03:45:11;6.30;99.90
61912;DHT22;49973;52.084;5.412;2023-12-14T03:47:40;6.30;99.90
61912;DHT22;49973;52.084;5.412;2023-12-14T03:50:11;6.20;99.90
61912;DHT22;49973;52.084;5.412;2023-12-14T03:52:40;6.20;99.90
61912;DHT22;49973;52.084;5.412;2023-12-14T03:55:09;6.20;99.90
61912;DHT22;49973;52.084;5.412;2023-12-14T03:57:38;6.30;99.90
61912;DHT22;49973;52.084;5.412;2023-12-14T04:00:09;6.20;99.90
61912;DHT22;49973;52.084;5.412;2023-12-14T04:02:38;6.30;99.90
61912;DHT22;49973;52.084;5.412;2023-12-14T04:05:07;6.20;99.90
61912;DHT22;49973;52.084;5.412;2023-12-14T04:07:38;6.30;99.90
61912;DHT22;49973;52.084;5.412;2023-12-14T04:10:09;6.30;99.90
61912;DHT22;49973;52.084;5.412;2023-12-14T04:12:38;6.20;99.90
61912;DHT22;49973;52.084;5.412;2023-12-14T04:15:08;6.30;99.90
61912;DHT22;49973;52.084;5.412;2023-12-14T04:17:37;6.20;99.90
61912;DHT22;49973;52.084;5.412;2023-12-14T04:20:07;6.30;99.90
61912;DHT22;49973;52.084;5.412;2023-12-14T04:22:38;6.30;99.90
61912;DHT22;49973;52.084;5.412;2023-12-14T04:25:07;6.20;99.90
61912;DHT22;49973;52.084;5.412;2023-12-14T04:27:35;6.20;99.90
61912;DHT22;49973;52.084;5.412;2023-12-14T04:30:05;6.20;99.90
61912;DHT22;49973;52.084;5.412;2023-12-14T04:32:38;6.20;99.90
61912;DHT22;49973;52.084;5.412;2023-12-14T04:35:07;6.40;99.90
61912;DHT22;49973;52.084;5.412;2023-12-14T04:37:37;6.20;99.90
61912;DHT22;49973;52.084;5.412;2023-12-14T04:40:07;6.20;99.90
61912;DHT22;49973;52.084;5.412;2023-12-14T04:42:37;6.20;99.90
61912;DHT22;49973;52.084;5.412;2023-12-14T04:45:06;6.20;99.90
61912;DHT22;49973;52.084;5.412;2023-12-14T04:47:36;6.20;99.90
61912;DHT22;49973;52.084;5.412;2023-12-14T04:50:05;6.20;99.90
61912;DHT22;49973;52.084;5.412;2023-12-14T04:52:35;6.20;99.90
61912;DHT22;49973;52.084;5.412;2023-12-14T04:55:06;6.20;99.90
61912;DHT22;49973;52.084;5.412;2023-12-14T04:57:35;6.20;99.90
61912;DHT22;49973;52.084;5.412;2023-12-14T05:00:05;6.20;99.90
61912;DHT22;49973;52.084;5.412;2023-12-14T05:02:35;6.20;99.90
61912;DHT22;49973;52.084;5.412;2023-12-14T05:05:04;6.20;99.90
61912;DHT22;49973;52.084;5.412;2023-12-14T05:07:33;6.10;99.90
61912;DHT22;49973;52.084;5.412;2023-12-14T05:10:02;6.10;99.90
61912;DHT22;49973;52.084;5.412;2023-12-14T05:12:32;6.10;99.90
61912;DHT22;49973;52.084;5.412;2023-12-14T05:15:01;6.10;99.90
61912;DHT22;49973;52.084;5.412;2023-12-14T05:17:29;6.10;99.90
61912;DHT22;49973;52.084;5.412;2023-12-14T05:19:58;6.10;99.90
61912;DHT22;49973;52.084;5.412;2023-12-14T05:22:27;6.10;99.90
61912;DHT22;49973;52.084;5.412;2023-12-14T05:24:55;6.10;99.90
61912;DHT22;49973;52.084;5.412;2023-12-14T05:27:24;6.10;99.90
61912;DHT22;49973;52.084;5.412;2023-12-14T05:29:54;6.10;99.90
61912;DHT22;49973;52.084;5.412;2023-12-14T05:32:23;6.10;99.90
61912;DHT22;49973;52.084;5.412;2023-12-14T05:34:51;6.10;99.90
61912;DHT22;49973;52.084;5.412;2023-12-14T05:37:20;6.10;99.90
61912;DHT22;49973;52.084;5.412;2023-12-14T05:39:48;6.10;99.90
61912;DHT22;49973;52.084;5.412;2023-12-14T05:42:17;6.10;99.90
61912;DHT22;49973;52.084;5.412;2023-12-14T05:44:46;6.10;99.90
61912;DHT22;49973;52.084;5.412;2023-12-14T05:47:16;6.00;99.90
61912;DHT22;49973;52.084;5.412;2023-12-14T05:49:44;6.20;99.90
61912;DHT22;49973;52.084;5.412;2023-12-14T05:52:13;6.00;99.90
61912;DHT22;49973;52.084;5.412;2023-12-14T05:54:41;6.00;99.90
61912;DHT22;49973;52.084;5.412;2023-12-14T05:57:10;6.00;99.90
61912;DHT22;49973;52.084;5.412;2023-12-14T05:59:40;6.00;99.90
61912;DHT22;49973;52.084;5.412;2023-12-14T06:02:09;6.00;99.90
61912;DHT22;49973;52.084;5.412;2023-12-14T06:04:40;6.00;99.90
61912;DHT22;49973;52.084;5.412;2023-12-14T06:07:11;6.00;99.90
61912;DHT22;49973;52.084;5.412;2023-12-14T06:09:42;6.00;99.90
61912;DHT22;49973;52.084;5.412;2023-12-14T06:12:10;5.90;99.90
61912;DHT22;49973;52.084;5.412;2023-12-14T06:14:40;5.90;99.90
61912;DHT22;49973;52.084;5.412;2023-12-14T06:17:09;5.90;99.90
61912;DHT22;49973;52.084;5.412;2023-12-14T06:19:37;5.90;99.90
61912;DHT22;49973;52.084;5.412;2023-12-14T06:22:08;5.90;99.90
61912;DHT22;49973;52.084;5.412;2023-12-14T06:24:36;5.90;99.90
61912;DHT22;49973;52.084;5.412;2023-12-14T06:27:05;5.90;99.90
61912;DHT22;49973;52.084;5.412;2023-12-14T06:29:33;5.90;99.90
61912;DHT22;49973;52.084;5.412;2023-12-14T06:32:02;5.90;99.90
61912;DHT22;49973;52.084;5.412;2023-12-14T06:34:31;5.90;99.90
61912;DHT22;49973;52.084;5.412;2023-12-14T06:36:59;5.90;99.90
61912;DHT22;49973;52.084;5.412;2023-12-14T06:39:31;5.80;99.90
61912;DHT22;49973;52.084;5.412;2023-12-14T06:42:00;5.80;99.90
61912;DHT22;49973;52.084;5.412;2023-12-14T06:44:29;5.80;99.90
61912;DHT22;49973;52.084;5.412;2023-12-14T06:46:58;5.80;99.90
61912;DHT22;49973;52.084;5.412;2023-12-14T06:49:26;5.80;99.90
61912;DHT22;49973;52.084;5.412;2023-12-14T06:51:55;5.70;99.90
61912;DHT22;49973;52.084;5.412;2023-12-14T06:54:23;5.80;99.90
61912;DHT22;49973;52.084;5.412;2023-12-14T06:56:53;5.70;99.90
61912;DHT22;49973;52.084;5.412;2023-12-14T06:59:22;5.70;99.90
61912;DHT22;49973;52.084;5.412;2023-12-14T07:01:50;5.70;99.90
61912;DHT22;49973;52.084;5.412;2023-12-14T07:04:19;5.60;99.90
61912;DHT22;49973;52.084;5.412;2023-12-14T07:06:50;5.60;99.90
61912;DHT22;49973;52.084;5.412;2023-12-14T07:09:19;5.60;99.90
61912;DHT22;49973;52.084;5.412;2023-12-14T07:11:48;5.60;99.90
61912;DHT22;49973;52.084;5.412;2023-12-14T07:14:17;5.60;99.90
61912;DHT22;49973;52.084;5.412;2023-12-14T07:16:49;5.60;99.90
61912;DHT22;49973;52.084;5.412;2023-12-14T07:19:17;5.50;99.90
61912;DHT22;49973;52.084;5.412;2023-12-14T07:21:46;5.60;99.90
61912;DHT22;49973;52.084;5.412;2023-12-14T07:24:14;5.60;99.90
61912;DHT22;49973;52.084;5.412;2023-12-14T07:26:43;5.50;99.90
61912;DHT22;49973;52.084;5.412;2023-12-14T07:29:12;5.50;99.90
61912;DHT22;49973;52.084;5.412;2023-12-14T07:31:42;5.50;99.90
61912;DHT22;49973;52.084;5.412;2023-12-14T07:34:10;5.60;99.90
61912;DHT22;49973;52.084;5.412;2023-12-14T07:36:39;5.50;99.90
61912;DHT22;49973;52.084;5.412;2023-12-14T07:39:08;5.50;99.90
61912;DHT22;49973;52.084;5.412;2023-12-14T07:41:37;5.50;99.90
61912;DHT22;49973;52.084;5.412;2023-12-14T07:44:05;5.50;99.90
61912;DHT22;49973;52.084;5.412;2023-12-14T07:46:34;5.50;99.90
61912;DHT22;49973;52.084;5.412;2023-12-14T07:49:08;5.50;99.90
61912;DHT22;49973;52.084;5.412;2023-12-14T07:51:37;5.50;99.90
61912;DHT22;49973;52.084;5.412;2023-12-14T07:54:06;5.50;99.90
61912;DHT22;49973;52.084;5.412;2023-12-14T07:56:34;5.40;99.90
61912;DHT22;49973;52.084;5.412;2023-12-14T07:59:03;5.50;99.90
61912;DHT22;49973;52.084;5.412;2023-12-14T08:01:34;5.50;99.90
61912;DHT22;49973;52.084;5.412;2023-12-14T08:04:03;5.50;99.90
61912;DHT22;49973;52.084;5.412;2023-12-14T08:06:33;5.40;99.90
61912;DHT22;49973;52.084;5.412;2023-12-14T08:09:02;5.40;99.90
61912;DHT22;49973;52.084;5.412;2023-12-14T08:11:31;5.40;99.90
61912;DHT22;49973;52.084;5.412;2023-12-14T08:13:59;5.40;99.90
61912;DHT22;49973;52.084;5.412;2023-12-14T08:16:29;5.40;99.90
61912;DHT22;49973;52.084;5.412;2023-12-14T08:18:57;5.50;99.90
61912;DHT22;49973;52.084;5.412;2023-12-14T08:21:26;5.50;99.90
61912;DHT22;49973;52.084;5.412;2023-12-14T08:23:56;5.50;99.90
61912;DHT22;49973;52.084;5.412;2023-12-14T08:26:23;5.50;99.90
61912;DHT22;49973;52.084;5.412;2023-12-14T08:28:52;5.50;99.90
61912;DHT22;49973;52.084;5.412;2023-12-14T08:31:21;5.40;99.90
61912;DHT22;49973;52.084;5.412;2023-12-14T08:33:50;5.50;99.90
61912;DHT22;49973;52.084;5.412;2023-12-14T08:36:19;5.60;99.90
61912;DHT22;49973;52.084;5.412;2023-12-14T08:38:47;5.60;99.90
61912;DHT22;49973;52.084;5.412;2023-12-14T08:41:18;5.60;99.90
61912;DHT22;49973;52.084;5.412;2023-12-14T08:43:46;5.60;99.90
61912;DHT22;49973;52.084;5.412;2023-12-14T08:46:15;5.60;99.90
61912;DHT22;49973;52.084;5.412;2023-12-14T08:48:44;5.60;99.90
61912;DHT22;49973;52.084;5.412;2023-12-14T08:51:12;5.60;99.90
61912;DHT22;49973;52.084;5.412;2023-12-14T08:53:41;5.60;99.90
61912;DHT22;49973;52.084;5.412;2023-12-14T08:56:10;5.60;99.90
61912;DHT22;49973;52.084;5.412;2023-12-14T08:58:40;5.70;99.90
61912;DHT22;49973;52.084;5.412;2023-12-14T09:01:09;5.70;99.90
61912;DHT22;49973;52.084;5.412;2023-12-14T09:03:38;5.70;99.90
61912;DHT22;49973;52.084;5.412;2023-12-14T09:06:07;5.80;99.90
61912;DHT22;49973;52.084;5.412;2023-12-14T09:08:35;5.80;99.90
61912;DHT22;49973;52.084;5.412;2023-12-14T09:11:04;5.80;99.90
61912;DHT22;49973;52.084;5.412;2023-12-14T09:13:33;5.80;99.90
61912;DHT22;49973;52.084;5.412;2023-12-14T09:16:03;5.80;99.90
61912;DHT22;49973;52.084;5.412;2023-12-14T09:18:32;5.90;99.90
61912;DHT22;49973;52.084;5.412;2023-12-14T09:21:01;5.90;99.90
61912;DHT22;49973;52.084;5.412;2023-12-14T09:23:30;5.90;99.90
61912;DHT22;49973;52.084;5.412;2023-12-14T09:25:59;5.90;99.90
61912;DHT22;49973;52.084;5.412;2023-12-14T09:28:28;5.90;99.90
61912;DHT22;49973;52.084;5.412;2023-12-14T09:30:56;6.00;99.90
61912;DHT22;49973;52.084;5.412;2023-12-14T09:33:26;6.00;99.90
61912;DHT22;49973;52.084;5.412;2023-12-14T09:35:55;6.00;99.90
61912;DHT22;49973;52.084;5.412;2023-12-14T09:38:24;6.00;99.90
61912;DHT22;49973;52.084;5.412;2023-12-14T09:40:52;6.10;99.90
61912;DHT22;49973;52.084;5.412;2023-12-14T09:43:21;6.10;99.90
61912;DHT22;49973;52.084;5.412;2023-12-14T09:45:51;6.20;99.90
61912;DHT22;49973;52.084;5.412;2023-12-14T09:48:20;6.20;99.90
61912;DHT22;49973;52.084;5.412;2023-12-14T09:50:52;6.30;99.90
61912;DHT22;49973;52.084;5.412;2023-12-14T09:53:20;6.30;99.90
61912;DHT22;49973;52.084;5.412;2023-12-14T09:55:49;6.30;99.90
61912;DHT22;49973;52.084;5.412;2023-12-14T09:58:18;6.40;99.90
61912;DHT22;49973;52.084;5.412;2023-12-14T10:00:46;6.40;99.90
61912;DHT22;49973;52.084;5.412;2023-12-14T10:03:23;6.40;99.90
61912;DHT22;49973;52.084;5.412;2023-12-14T10:05:56;6.50;99.90
61912;DHT22;49973;52.084;5.412;2023-12-14T10:08:25;6.50;99.90
61912;DHT22;49973;52.084;5.412;2023-12-14T10:10:55;6.50;99.90
61912;DHT22;49973;52.084;5.412;2023-12-14T10:13:36;6.50;99.90
61912;DHT22;49973;52.084;5.412;2023-12-14T10:16:06;6.50;99.90
61912;DHT22;49973;52.084;5.412;2023-12-14T10:18:34;6.50;99.90
61912;DHT22;49973;52.084;5.412;2023-12-14T10:21:07;6.60;99.90
61912;DHT22;49973;52.084;5.412;2023-12-14T10:23:36;6.60;99.90
61912;DHT22;49973;52.084;5.412;2023-12-14T10:26:05;6.70;99.90
61912;DHT22;49973;52.084;5.412;2023-12-14T10:28:33;6.70;99.90
61912;DHT22;49973;52.084;5.412;2023-12-14T10:31:03;6.80;99.90
61912;DHT22;49973;52.084;5.412;2023-12-14T10:33:32;6.90;99.90
61912;DHT22;49973;52.084;5.412;2023-12-14T10:36:02;7.00;99.90
61912;DHT22;49973;52.084;5.412;2023-12-14T10:38:34;7.20;99.90
61912;DHT22;49973;52.084;5.412;2023-12-14T10:41:05;7.30;99.90
61912;DHT22;49973;52.084;5.412;2023-12-14T10:43:36;7.40;99.90
61912;DHT22;49973;52.084;5.412;2023-12-14T10:46:16;7.50;99.90
61912;DHT22;49973;52.084;5.412;2023-12-14T10:48:47;7.60;99.90
61912;DHT22;49973;52.084;5.412;2023-12-14T10:51:17;7.60;99.90
61912;DHT22;49973;52.084;5.412;2023-12-14T10:53:48;7.70;99.90
61912;DHT22;49973;52.084;5.412;2023-12-14T10:56:19;7.70;99.90
61912;DHT22;49973;52.084;5.412;2023-12-14T10:58:52;7.70;99.90
61912;DHT22;49973;52.084;5.412;2023-12-14T11:01:21;7.60;99.90
61912;DHT22;49973;52.084;5.412;2023-12-14T11:03:54;7.80;99.90
61912;DHT22;49973;52.084;5.412;2023-12-14T11:06:29;7.70;99.90
61912;DHT22;49973;52.084;5.412;2023-12-14T11:09:01;7.60;99.90
61912;DHT22;49973;52.084;5.412;2023-12-14T11:11:47;7.60;99.90
61912;DHT22;49973;52.084;5.412;2023-12-14T11:14:25;7.50;99.90
61912;DHT22;49973;52.084;5.412;2023-12-14T11:16:55;7.50;99.90
61912;DHT22;49973;52.084;5.412;2023-12-14T11:19:29;7.40;99.90
61912;DHT22;49973;52.084;5.412;2023-12-14T11:22:22;7.40;99.90
61912;DHT22;49973;52.084;5.412;2023-12-14T11:24:54;7.40;99.90
61912;DHT22;49973;52.084;5.412;2023-12-14T11:27:26;7.40;99.90
61912;DHT22;49973;52.084;5.412;2023-12-14T11:29:56;7.30;99.90
61912;DHT22;49973;52.084;5.412;2023-12-14T11:32:26;7.30;99.90
61912;DHT22;49973;52.084;5.412;2023-12-14T11:34:56;7.30;99.90
61912;DHT22;49973;52.084;5.412;2023-12-14T11:37:25;7.30;99.90
61912;DHT22;49973;52.084;5.412;2023-12-14T11:39:56;7.30;99.90
61912;DHT22;49973;52.084;5.412;2023-12-14T11:42:25;7.30;99.90
61912;DHT22;49973;52.084;5.412;2023-12-14T11:44:58;7.20;99.90
61912;DHT22;49973;52.084;5.412;2023-12-14T11:47:27;7.40;99.90
61912;DHT22;49973;52.084;5.412;2023-12-14T11:49:56;7.30;99.90
61912;DHT22;49973;52.084;5.412;2023-12-14T11:52:24;7.30;99.90
61912;DHT22;49973;52.084;5.412;2023-12-14T11:54:53;7.30;99.90
61912;DHT22;49973;52.084;5.412;2023-12-14T11:57:28;7.30;99.90
61912;DHT22;49973;52.084;5.412;2023-12-14T11:59:58;7.30;99.90
61912;DHT22;49973;52.084;5.412;2023-12-14T12:02:27;7.40;99.90
61912;DHT22;49973;52.084;5.412;2023-12-14T12:04:56;7.40;99.90
61912;DHT22;49973;52.084;5.412;2023-12-14T12:07:24;7.50;99.90
61912;DHT22;49973;52.084;5.412;2023-12-14T12:09:53;7.60;99.90
61912;DHT22;49973;52.084;5.412;2023-12-14T12:12:23;7.60;99.90
61912;DHT22;49973;52.084;5.412;2023-12-14T12:14:51;7.70;99.90
61912;DHT22;49973;52.084;5.412;2023-12-14T12:17:21;7.90;99.90
61912;DHT22;49973;52.084;5.412;2023-12-14T12:19:50;7.80;99.90
61912;DHT22;49973;52.084;5.412;2023-12-14T12:22:18;7.80;99.90
61912;DHT22;49973;52.084;5.412;2023-12-14T12:24:47;7.90;99.90
61912;DHT22;49973;52.084;5.412;2023-12-14T12:27:28;7.90;99.90
61912;DHT22;49973;52.084;5.412;2023-12-14T12:29:56;7.90;99.90
61912;DHT22;49973;52.084;5.412;2023-12-14T12:32:25;7.90;99.90
61912;DHT22;49973;52.084;5.412;2023-12-14T12:34:54;7.90;99.90
61912;DHT22;49973;52.084;5.412;2023-12-14T12:37:22;7.90;99.90
61912;DHT22;49973;52.084;5.412;2023-12-14T12:39:51;8.00;99.90
61912;DHT22;49973;52.084;5.412;2023-12-14T12:42:20;8.00;99.90
61912;DHT22;49973;52.084;5.412;2023-12-14T12:44:52;8.00;99.90
61912;DHT22;49973;52.084;5.412;2023-12-14T12:47:21;8.00;99.90
61912;DHT22;49973;52.084;5.412;2023-12-14T12:49:50;8.00;99.90
61912;DHT22;49973;52.084;5.412;2023-12-14T12:52:18;7.90;99.90
61912;DHT22;49973;52.084;5.412;2023-12-14T12:54:47;8.00;99.90
61912;DHT22;49973;52.084;5.412;2023-12-14T12:57:15;8.00;99.90
61912;DHT22;49973;52.084;5.412;2023-12-14T12:59:45;7.90;99.90
61912;DHT22;49973;52.084;5.412;2023-12-14T13:02:15;7.90;99.90
61912;DHT22;49973;52.084;5.412;2023-12-14T13:04:44;8.00;99.90
61912;DHT22;49973;52.084;5.412;2023-12-14T13:07:14;7.90;99.90
61912;DHT22;49973;52.084;5.412;2023-12-14T13:09:42;8.00;99.90
61912;DHT22;49973;52.084;5.412;2023-12-14T13:12:10;7.90;99.90
61912;DHT22;49973;52.084;5.412;2023-12-14T13:14:40;7.90;99.90
61912;DHT22;49973;52.084;5.412;2023-12-14T13:17:08;7.90;99.90
61912;DHT22;49973;52.084;5.412;2023-12-14T13:19:39;7.90;99.90
61912;DHT22;49973;52.084;5.412;2023-12-14T13:22:08;7.90;99.90
61912;DHT22;49973;52.084;5.412;2023-12-14T13:24:38;8.00;99.90
61912;DHT22;49973;52.084;5.412;2023-12-14T13:27:07;7.90;99.90
61912;DHT22;49973;52.084;5.412;2023-12-14T13:29:36;7.90;99.90
61912;DHT22;49973;52.084;5.412;2023-12-14T13:32:04;7.90;99.90
61912;DHT22;49973;52.084;5.412;2023-12-14T13:34:33;7.80;99.90
61912;DHT22;49973;52.084;5.412;2023-12-14T13:37:03;7.80;99.90
61912;DHT22;49973;52.084;5.412;2023-12-14T13:39:33;7.80;99.90
61912;DHT22;49973;52.084;5.412;2023-12-14T13:42:05;7.80;99.90
61912;DHT22;49973;52.084;5.412;2023-12-14T13:44:34;7.80;99.90
61912;DHT22;49973;52.084;5.412;2023-12-14T13:47:03;7.90;99.90
61912;DHT22;49973;52.084;5.412;2023-12-14T13:49:33;7.90;99.90
61912;DHT22;49973;52.084;5.412;2023-12-14T13:52:04;7.90;99.90
61912;DHT22;49973;52.084;5.412;2023-12-14T13:54:32;8.00;99.90
61912;DHT22;49973;52.084;5.412;2023-12-14T13:57:03;8.00;99.90
61912;DHT22;49973;52.084;5.412;2023-12-14T13:59:32;7.90;99.90
61912;DHT22;49973;52.084;5.412;2023-12-14T14:02:00;8.00;99.90
61912;DHT22;49973;52.084;5.412;2023-12-14T14:04:29;8.00;99.90
61912;DHT22;49973;52.084;5.412;2023-12-14T14:06:58;8.00;99.90
61912;DHT22;49973;52.084;5.412;2023-12-14T14:09:28;8.00;99.90
61912;DHT22;49973;52.084;5.412;2023-12-14T14:11:57;7.90;99.90
61912;DHT22;49973;52.084;5.412;2023-12-14T14:14:25;7.90;99.90
61912;DHT22;49973;52.084;5.412;2023-12-14T14:16:54;7.90;99.90
61912;DHT22;49973;52.084;5.412;2023-12-14T14:19:23;7.90;99.90
61912;DHT22;49973;52.084;5.412;2023-12-14T14:21:51;7.80;99.90
61912;DHT22;49973;52.084;5.412;2023-12-14T14:24:20;7.80;99.90
61912;DHT22;49973;52.084;5.412;2023-12-14T14:26:50;7.80;99.90
61912;DHT22;49973;52.084;5.412;2023-12-14T14:29:19;7.80;99.90
61912;DHT22;49973;52.084;5.412;2023-12-14T14:31:48;7.70;99.90
61912;DHT22;49973;52.084;5.412;2023-12-14T14:34:17;7.80;99.90
61912;DHT22;49973;52.084;5.412;2023-12-14T14:36:48;7.60;99.90
61912;DHT22;49973;52.084;5.412;2023-12-14T14:39:16;7.50;99.90
61912;DHT22;49973;52.084;5.412;2023-12-14T14:41:46;7.50;99.90
61912;DHT22;49973;52.084;5.412;2023-12-14T14:44:16;7.50;99.90
61912;DHT22;49973;52.084;5.412;2023-12-14T14:46:44;7.30;99.90
61912;DHT22;49973;52.084;5.412;2023-12-14T14:49:13;7.20;99.90
61912;DHT22;49973;52.084;5.412;2023-12-14T14:51:42;7.20;99.90
61912;DHT22;49973;52.084;5.412;2023-12-14T14:54:10;7.20;99.90
61912;DHT22;49973;52.084;5.412;2023-12-14T14:56:40;7.10;99.90
61912;DHT22;49973;52.084;5.412;2023-12-14T14:59:10;7.10;99.90
61912;DHT22;49973;52.084;5.412;2023-12-14T15:01:44;7.10;99.90
61912;DHT22;49973;52.084;5.412;2023-12-14T15:04:14;7.10;99.90
61912;DHT22;49973;52.084;5.412;2023-12-14T15:06:42;7.00;99.90
61912;DHT22;49973;52.084;5.412;2023-12-14T15:09:11;7.00;99.90
61912;DHT22;49973;52.084;5.412;2023-12-14T15:11:40;7.10;99.90
61912;DHT22;49973;52.084;5.412;2023-12-14T15:14:09;7.00;99.90
61912;DHT22;49973;52.084;5.412;2023-12-14T15:16:38;7.00;99.90
61912;DHT22;49973;52.084;5.412;2023-12-14T15:19:08;6.90;99.90
61912;DHT22;49973;52.084;5.412;2023-12-14T15:21:38;6.90;99.90
61912;DHT22;49973;52.084;5.412;2023-12-14T15:24:07;6.90;99.90
61912;DHT22;49973;52.084;5.412;2023-12-14T15:26:36;6.90;99.90
61912;DHT22;49973;52.084;5.412;2023-12-14T15:29:04;6.90;99.90
61912;DHT22;49973;52.084;5.412;2023-12-14T15:31:33;6.90;99.90
61912;DHT22;49973;52.084;5.412;2023-12-14T15:34:02;6.90;99.90
61912;DHT22;49973;52.084;5.412;2023-12-14T15:36:32;6.90;99.90
61912;DHT22;49973;52.084;5.412;2023-12-14T15:39:02;6.90;99.90
61912;DHT22;49973;52.084;5.412;2023-12-14T15:41:31;6.90;99.90
61912;DHT22;49973;52.084;5.412;2023-12-14T15:44:00;6.90;99.90
61912;DHT22;49973;52.084;5.412;2023-12-14T15:46:29;6.90;99.90
61912;DHT22;49973;52.084;5.412;2023-12-14T15:48:57;6.90;99.90
61912;DHT22;49973;52.084;5.412;2023-12-14T15:51:26;6.90;99.90
61912;DHT22;49973;52.084;5.412;2023-12-14T15:53:56;6.80;99.90
61912;DHT22;49973;52.084;5.412;2023-12-14T15:56:26;6.80;99.90
61912;DHT22;49973;52.084;5.412;2023-12-14T15:59:00;6.80;99.90